Home Team Position History
You can show your support by sponsoring this page for $50.  
Your ad/message will appear in this space for one year.  
Thank you for your support!       Team History Index Oakland Athletics
         
          Third Base
             
Pos St All- Other 3rd Base Fielding Statistics Pos St Batting Statistics as Third Baseman Win Shares Pos St
Year Rank Rank Name HOF MVP Star Rookie GG SS Team Stdg Bats Age Pos Games PO Assts Err DP F Pct. Year Rank Rank Name At Bats Hits 2B 3B HR Runs RBI BB IBB SO HP SH SF SB CS GDP BA OBA SA OPS RC B WS F WS T WS BWS/G FWS/G TWS/G Adj WSQ Year Rank Rank Name
1901 2 2 Lave Cross     PHI 4 R 35   100 140 236 33 7 .919   1901 2 2 Lave Cross 424 139 28 12 2 82 73 19 1 6 23 .328 .358 .465 .823 84   14.1 4.4 18.5 .141 .044 .185 20.25 1901 2 2 Lave Cross
1901 11 Joe Dolan     PHI 4 U 28 SS   35 42 103 14 5 .912   1901 11 Joe Dolan 121 26 8 1 0 18 14 9 2 2 1 .215 .280 .298 .578 13   0.5 1.3 1.8 .014 .037 .051 1.04 1901 11 Joe Dolan
         
1902 1 1 Lave Cross     PHI 1 R 36   137 185 306 30 18 .942   1902 1 1 Lave Cross 559 191 39 8 0 90 108 27 2 7 25 .342 .374 .440 .814 107   18.5 7.6 26.1 .135 .055 .191 28.78 1902 1 1 Lave Cross
         
1903 5 5 Lave Cross     PHI 2 R 37   136 152 228 20 14 .950   1903 5 5 Lave Cross 555 162 22 4 2 60 89 10 0 8 14 .292 .304 .357 .661 64   9.5 6.7 16.2 .070 .049 .119 14.32 1903 5 5 Lave Cross
         
1904 3 3 Lave Cross     PHI 5 R 38   155 164 247 28 15 .936   1904 3 3 Lave Cross 607 176 31 10 1 73 71 13 5 14 10 .290 .310 .379 .689 72   15.0 6.4 21.4 .097 .041 .138 21.73 1904 3 3 Lave Cross
         
1905 4 4 Lave Cross     PHI 1 R 39   147 161 249 32 6 .928   1905 4 4 Lave Cross 587 156 29 5 0 69 77 26 2 15 8 .266 .299 .332 .631 62   9.4 5.8 15.2 .064 .039 .103 13.98 1905 4 4 Lave Cross
         
1906 10 6 John Knight     PHI 4 R 20   67 71 130 17 6 .922   1906 10 6 John Knight 229 44 6 2 3 26 18 17 0 5 5 .192 .248 .275 .523 17   1.6 2.9 4.5 .024 .043 .067 3.72 1906 10 6 John Knight
1906 12 Rube Oldring   R   PHI 4 R 22   49 53 87 16 5 .897   1906 12 Rube Oldring 155 37 9 1 0 13 17 2 3 1 6 .239 .263 .310 .573 13   2.1 1.6 3.7 .043 .033 .076 3.24 1906 12 Rube Oldring
1906 17 Art Brouthers   R   PHI 4 U 23   33 42 57 11 3 .900   1906 17 Art Brouthers 144 30 5 1 0 18 14 5 1 10 4 .208 .240 .257 .497 8   - 1.2 1.2 .000 .036 .036 0.73 1906 17 Art Brouthers
         
1907 1 2 Jimmy Collins Vet     PHI 2 R 37   98 97 185 30 11 .904   1907 1 2 Jimmy Collins 364 99 21 0 0 38 35 24 8 9 4 .272 .331 .330 .661 46   9.0 2.6 11.6 .092 .027 .118 12.87 1907 1 2 Jimmy Collins
1907 8 John Knight     PHI 2 R 21   38 49 82 21 5 .862   1907 8 John Knight 139 29 7 1 0 6 12 10 2 2 1 .209 .272 .273 .545 11   0.8 1.1 1.9 .021 .029 .050 1.37 1907 8 John Knight
         
1908 8 7 Jimmy Collins Vet     PHI 6 R 38   115 117 216 26 14 .928   1908 8 7 Jimmy Collins 433 94 14 3 0 34 30 20 4 13 5 .217 .258 .263 .521 32   1.9 4.7 6.6 .017 .041 .057 5.12 1908 8 7 Jimmy Collins
1908 14 Frank Manush   R   PHI 6 R 24   20 27 29 4 3 .933   1908 14 Frank Manush 70 11 2 1 0 5 0 2 1 2 2 .157 .192 .214 .406 2   - 0.6 0.6 .000 .030 .030 0.34 1908 14 Frank Manush
         
1909 1 1 Home Run Baker Vet   R   PHI 2 L 23   146 209 277 42 16 .920   1909 1 1 Home Run Baker 541 165 27 19 4 73 85 26 5 34 20 .305 .343 .447 .790 84   21.8 5.5 27.3 .149 .038 .187 33.82 1909 1 1 Home Run Baker
         
1910 1 1 Home Run Baker Vet     PHI 1 L 24   146 207 313 45 35 .920   1910 1 1 Home Run Baker 561 159 25 15 2 83 74 34 4 21 21 .283 .329 .392 .721 78   17.7 6.9 24.6 .121 .047 .168 30.20 1910 1 1 Home Run Baker
         
1911 1 1 Home Run Baker Vet 11     PHI 1 L 25   148 217 274 30 26 .942   1911 1 1 Home Run Baker 592 198 42 14 11 96 115 40 2 25 38 .334 .379 .508 .887 125   27.7 7.3 35.0 .187 .049 .236 44.58 1911 1 1 Home Run Baker
         
1912 1 1 Home Run Baker Vet 7     PHI 3 L 26   149 217 321 34 25 .941   1912 1 1 Home Run Baker 577 200 40 21 10 116 130 50 6 11 40 .347 .404 .541 .945 132   31.5 7.1 38.6 .211 .048 .259 48.97 1912 1 1 Home Run Baker
         
1913 1 1 Home Run Baker Vet 5     PHI 1 L 27   149 233 280 44 19 .921   1913 1 1 Home Run Baker 564 190 34 9 12 116 117 63 31 10 7 34 .337 .413 .493 .906 125   33.7 4.7 38.4 .226 .032 .258 52.26 1913 1 1 Home Run Baker
         
1914 1 1 Home Run Baker Vet T3     PHI 1 L 28   149 221 292 24 20 .955   1914 1 1 Home Run Baker 570 182 23 10 9 84 89 53 37 3 8 19 20 .319 .380 .442 .822 107   28.7 6.8 35.5 .193 .046 .238 45.65 1914 1 1 Home Run Baker
         
1915 6 6 Wally Schang     PHI 8 B 25 C,LF,CF   43 64 81 18 9 .890   1915 6 6 Wally Schang 140 35 4 4 0 25 17 26 18 5 5 7 1 .250 .386 .336 .722 24   6.1 0.4 6.5 .142 .009 .151 7.28 1915 6 6 Wally Schang
1915 14 Larry Kopf   R   PHI 8 B 24 SS   42 49 71 17 6 .876   1915 14 Larry Kopf 137 31 4 1 0 14 12 15 16 3 3 2 3 .226 .316 .270 .586 13   1.7 0.2 1.9 .040 .005 .045 1.17 1915 14 Larry Kopf
         
1916 12 8 Charlie Pick   R   PHI 8 L 28   108 143 230 42 25 .899   1916 12 8 Charlie Pick 371 89 9 3 0 27 19 37 22 3 10 23 15 .240 .314 .280 .594 33   3.8 1.3 5.1 .035 .012 .047 3.14 1916 12 8 Charlie Pick
1916 14 Lee McElwee   R   PHI 8 R 22   30 36 55 12 6 .883   1916 14 Lee McElwee 106 28 2 0 0 6 7 5 12 0 3 0 .264 .297 .283 .580 8   0.8 0.4 1.2 .027 .013 .040 0.68 1916 14 Lee McElwee
         
1917 6 6 Ray Bates   R   PHI 8 R 27   124 168 267 31 17 .933   1917 6 6 Ray Bates 485 115 20 7 2 47 66 21 39 6 14 12 .237 .277 .320 .597 41   5.2 4.1 9.3 .042 .033 .075 7.58 1917 6 6 Ray Bates
         
1918 3 3 Larry Gardner     PHI 8 L 32   127 158 291 17 33 .964   1918 3 3 Larry Gardner 463 132 22 6 1 50 52 43 22 0 16 9 .285 .346 .365 .711 60   12.3 4.9 17.2 .097 .039 .135 17.68 1918 3 3 Larry Gardner
         
1919 11 8 Fred Thomas     PHI 8 R 26   124 168 242 24 14 .945   1919 11 8 Fred Thomas 453 96 11 10 2 42 23 43 52 2 19 12 .212 .283 .294 .577 36   0.9 2.5 3.4 .007 .020 .027 1.70 1919 11 8 Fred Thomas
         
Pos St All- Other 3rd Base Fielding Statistics Pos St Batting Statistics as Third Baseman Win Shares Pos St
Year Rank Rank Name HOF MVP Star Rookie GG SS Team Stdg Bats Age Pos Games PO Assts Err DP F Pct. Year Rank Rank Name At Bats Hits 2B 3B HR Runs RBI BB IBB SO HP SH SF SB CS GDP BA OBA SA OPS RC B WS F WS T WS BWS/G FWS/G TWS/G Adj WSQ Year Rank Rank Name
1920 14 7 Fred Thomas     PHI 8 R 27   61 78 140 9 9 .960   1920 14 7 Fred Thomas 213 49 5 3 1 23 9 22 14 2 10 7 3 .230 .308 .296 .604 21   1.0 1.8 2.8 .016 .030 .046 1.80 1920 14 7 Fred Thomas
1920 6 Joe Dugan     PHI 8 R 23 2B,SS   60 76 126 11 13 .948   1920 6 Joe Dugan 240 77 20 2 1 32 29 9 25 1 4 2 4 .321 .348 .433 .781 36   5.1 1.6 6.7 .085 .027 .112 6.70 1920 6 Joe Dugan
1920 13 Jimmy Dykes     PHI 8 R 23 2B   34 49 80 14 15 .902   1920 13 Jimmy Dykes 131 34 6 1 2 19 8 13 17 2 6 1 2 .260 .336 .366 .702 17   1.7 1.1 2.8 .050 .032 .082 2.41 1920 13 Jimmy Dykes
         
1921 7 7 Joe Dugan     PHI 8 R 24   119 118 208 16 19 .953   1921 7 7 Joe Dugan 461 136 22 6 10 54 58 28 45 5 13 5 1 .295 .342 .434 .776 63   6.0 2.6 8.6 .050 .022 .072 6.94 1921 7 7 Joe Dugan
1921 14 Chick Galloway     PHI 8 R 24 SS   20 21 48 5 0 .932   1921 14 Chick Galloway 71 19 4 1 0 6 7 4 7 0 2 2 1 .268 .307 .352 .659 7   0.4 0.3 0.7 .020 .015 .035 0.39 1921 14 Chick Galloway
         
1922 1 1 Jimmy Dykes T21     PHI 7 R 25   141 186 295 28 21 .945   1922 1 1 Jimmy Dykes 484 133 22 7 12 64 66 53 95 10 14 6 2 .275 .358 .424 .782 76   12.0 3.9 15.9 .085 .028 .113 17.11 1922 1 1 Jimmy Dykes
         
1923 4 4 Sammy Hale   R   PHI 6 R 26   107 85 222 28 17 .916   1923 4 4 Sammy Hale 434 125 22 8 3 68 51 17 31 8 14 8 3 .288 .327 .396 .723 56   7.5 2.6 10.1 .070 .024 .094 10.15 1923 4 4 Sammy Hale
1923 9 Harry Riconda   R   PHI 6 R 26   47 45 118 16 9 .911   1923 9 Harry Riconda 168 44 11 4 0 22 12 12 17 2 9 4 2 .262 .319 .375 .694 20   2.2 1.5 3.7 .047 .032 .079 3.40 1923 9 Harry Riconda
         
1924 12 8 Harry Riconda     PHI 5 R 27   73 95 147 19 14 .927   1924 12 8 Harry Riconda 270 68 15 3 1 33 20 26 41 2 8 3 4 .252 .322 .341 .663 31   2.6 2.4 5.0 .036 .033 .068 4.16 1924 12 8 Harry Riconda
1924 6 Sammy Hale     PHI 5 R 27   55 39 108 8 10 .948   1924 6 Sammy Hale 235 75 13 2 2 37 15 15 17 3 5 3 2 .319 .368 .417 .785 35   5.2 1.7 6.9 .095 .031 .125 7.79 1924 6 Sammy Hale
1924 11 Jimmy Dykes     PHI 5 R 27 2B   27 32 65 7 5 .933   1924 11 Jimmy Dykes 103 32 7 2 1 17 13 10 15 0 3 0 1 .311 .372 .447 .819 16   2.5 1.2 3.7 .093 .044 .137 4.37 1924 11 Jimmy Dykes
         
1925 3 3 Sammy Hale     PHI 2 R 28   96 98 173 24 19 .919   1925 3 3 Sammy Hale 387 134 30 11 8 61 62 17 27 2 16 7 4 .346 .377 .543 .920 71   11.1 2.5 13.6 .116 .026 .142 15.53 1925 3 3 Sammy Hale
1925 6 Jimmy Dykes     PHI 2 R 28 2B   64 93 127 13 8 .944   1925 6 Jimmy Dykes 240 77 17 6 3 48 28 24 25 4 7 2 1 .321 .392 .479 .871 43   6.6 3.0 9.6 .103 .047 .150 11.28 1925 6 Jimmy Dykes
         
1926 3 3 Jimmy Dykes     PHI 3 R 29 2B   77 95 188 15 16 .950   1926 3 3 Jimmy Dykes 271 78 20 3 1 34 28 31 21 5 8 4 1 .288 .371 .395 .766 41   5.4 4.5 9.9 .070 .058 .129 11.32 1926 3 3 Jimmy Dykes
1926 7 Sammy Hale     PHI 3 R 29   77 82 152 13 16 .947   1926 7 Sammy Hale 323 91 22 9 4 48 42 13 36 1 12 1 4 .282 .312 .443 .755 41   4.6 3.1 7.7 .060 .040 .100 7.77 1926 7 Sammy Hale
         
1927 1 1 Sammy Hale     PHI 2 R 30   128 152 247 16 46 .961   1927 1 1 Sammy Hale 501 157 24 8 5 77 81 32 32 3 28 11 3 .313 .358 .423 .781 77   11.6 6.7 18.3 .091 .052 .143 21.55 1927 1 1 Sammy Hale
1927 10 Jimmy Dykes 8     PHI 2 R 30 1B   25 25 52 4 4 .951   1927 10 Jimmy Dykes 85 28 7 1 1 13 12 9 5 1 3 0 1 .329 .400 .471 .871 15   2.6 1.1 3.7 .104 .044 .148 4.43 1927 10 Jimmy Dykes
         
1928 5 4 Sammy Hale     PHI 2 R 31   79 86 189 20 17 .932   1928 5 4 Sammy Hale 314 97 20 9 4 38 58 9 21 3 10 2 0 .309 .334 .468 .802 48   7.8 4.8 12.6 .099 .061 .159 14.09 1928 5 4 Sammy Hale
1928 4 Jimmie Foxx BBW 11     PHI 2 R 20 1B   60 59 129 12 9 .940   1928 4 Jimmie Foxx 220 72 16 6 7 47 43 33 24 1 7 2 4 .327 .417 .550 .967 47   9.4 3.2 12.6 .157 .053 .210 16.16 1928 4 Jimmie Foxx
1928 12 Jimmy Dykes     PHI 2 R 31 2B,SS   20 21 30 1 4 .981   1928 12 Jimmy Dykes 59 16 3 0 1 10 7 7 5 1 3 0 0 .271 .358 .373 .731 9   1.2 0.9 2.1 .060 .045 .105 1.91 1928 12 Jimmy Dykes
         
1929 10 7 Sammy Hale     PHI 1 R 32   99 90 171 12 13 .956   1929 10 7 Sammy Hale 375 104 14 3 1 50 40 12 18 2 23 6 2 .277 .303 .339 .642 40   2.7 3.8 6.5 .027 .038 .066 5.08 1929 10 7 Sammy Hale
1929 4 Jimmy Dykes     PHI 1 R 32 SS   45 60 79 11 9 .927   1929 4 Jimmy Dykes 154 50 13 2 5 29 30 20 10 3 7 3 1 .325 .412 .532 .944 35   6.4 1.6 8.0 .142 .036 .178 10.29 1929 4 Jimmy Dykes
         
1930 2 2 Jimmy Dykes     PHI 1 R 33   123 124 191 13 18 .960   1930 2 2 Jimmy Dykes 431 130 28 4 6 68 72 73 53 10 16 3 3 .302 .414 .427 .841 85   13.9 3.5 17.4 .113 .028 .141 19.61 1930 2 2 Jimmy Dykes
1930 16 Eric McNair   R   PHI 1 R 21 SS   29 36 43 6 2 .929   1930 16 Eric McNair 104 28 5 1 0 12 15 4 8 0 1 2 1 .269 .296 .337 .633 11   0.6 0.6 1.2 .021 .021 .041 0.73 1930 16 Eric McNair
         
1931 4 4 Jimmy Dykes     PHI 1 R 34   87 105 153 7 19 .974   1931 4 4 Jimmy Dykes 303 83 24 2 3 41 39 42 40 5 3 1 2 .274 .371 .396 .767 47   7.1 3.8 10.9 .082 .044 .125 12.08 1931 4 4 Jimmy Dykes
1931 12 Eric McNair     PHI 1 R 22   47 43 86 12 15 .915   1931 12 Eric McNair 173 47 6 1 3 25 20 7 12 2 3 1 2 .272 .308 .370 .678 19   1.7 1.6 3.3 .036 .034 .070 2.74 1931 12 Eric McNair
1931 7 Jimmie Foxx BBW 25     PHI 1 R 23 1B   26 24 55 8 4 .908   1931 7 Jimmie Foxx 96 28 6 2 6 17 22 14 16 0 1 1 1 .292 .382 .583 .965 21   4.0 0.9 4.9 .154 .035 .188 6.66 1931 7 Jimmie Foxx
         
1932 4 4 Jimmy Dykes     PHI 2 R 35   141 142 251 8 20 .980   1932 4 4 Jimmy Dykes 518 137 27 5 6 66 83 71 60 4 7 7 2 .264 .358 .371 .729 77   9.0 4.1 13.1 .064 .029 .093 12.27 1932 4 4 Jimmy Dykes
         
1933 1 1 Mike Higgins R   PHI 3 R 24   152 159 270 24 23 .947   1933 1 1 Mike Higgins 567 178 35 12 13 85 99 61 53 2 5 2 7 .314 .383 .487 .870 103   18.6 4.3 22.9 .122 .028 .151 27.88 1933 1 1 Mike Higgins
       
1934 3 3 Mike Higgins T17 a   PHI 5 R 25   144 147 247 37 34 .914   1934 3 3 Mike Higgins 543 179 37 6 16 89 90 56 70 0 7 9 2 .330 .392 .508 .900 103   17.5 2.7 20.2 .122 .019 .140 21.61 1934 3 3 Mike Higgins
       
1935 5 5 Mike Higgins T20   PHI 8 R 26   131 162 214 21 15 .947   1935 5 5 Mike Higgins 524 155 32 4 23 69 94 42 62 2 5 6 2 .296 .350 .504 .854 86   12.3 2.9 15.2 .094 .022 .116 14.97 1935 5 5 Mike Higgins
       
Pos St All- Other 3rd Base Fielding Statistics Pos St Batting Statistics as Third Baseman Win Shares Pos St
Year Rank Rank Name HOF MVP Star Rookie GG SS Team Stdg Bats Age Pos Games PO Assts Err DP F Pct. Year Rank Rank Name At Bats Hits 2B 3B HR Runs RBI BB IBB SO HP SH SF SB CS GDP BA OBA SA OPS RC B WS F WS T WS BWS/G FWS/G TWS/G Adj WSQ Year Rank Rank Name
1936 6 6 Mike Higgins A   PHI 8 R 27   145 151 266 26 24 .941   1936 6 6 Mike Higgins 550 159 32 2 12 89 80 67 61 0 3 7 4 .289 .366 .420 .786 88   9.8 4.0 13.8 .068 .028 .095 12.14 1936 6 6 Mike Higgins
       
1937 5 5 Bill Werber   PHI 7 R 29   125 132 260 17 25 .958   1937 5 5 Bill Werber 481 141 30 4 7 83 68 72 38 1 8 34 13 .293 .386 .416 .802 77   9.4 3.9 13.3 .075 .031 .106 12.66 1937 5 5 Bill Werber
1937 13 Rusty Peters R   PHI 7 R 22 2B   31 37 54 13 2 .875   1937 13 Rusty Peters 92 24 5 2 1 11 12 11 16 0 1 1 1 .261 .340 .391 .731 11   0.9 0.5 1.4 .029 .016 .045 0.87 1937 13 Rusty Peters
       
1938 6 6 Bill Werber   PHI 8 R 30   134 168 266 30 21 .935   1938 6 6 Bill Werber 499 129 22 7 11 92 69 93 37 2 5 19 15 .259 .377 .397 .774 77   8.4 4.9 13.3 .063 .037 .099 12.04 1938 6 6 Bill Werber
       
1939 8 8 Dario Lodigiani   PHI 7 R 22 2B   89 103 181 17 8 .944   1939 8 8 Dario Lodigiani 299 78 17 3 5 35 33 32 14 3 5 2 0 7 .261 .338 .388 .726 40   4.6 1.9 6.5 .052 .021 .073 4.73 1939 8 8 Dario Lodigiani
1939 10 Bill Nagel R   PHI 7 R 23 2B   43 34 81 7 4 .943   1939 10 Bill Nagel 147 37 8 2 5 17 17 11 37 1 3 1 0 6 .252 .308 .435 .743 18   1.8 0.5 2.3 .042 .012 .053 1.43 1939 10 Bill Nagel
1939 13 Al Brancato R   PHI 7 R 20   20 20 42 4 2 .939   1939 13 Al Brancato 65 13 5 0 1 11 8 8 4 1 2 1 0 3 .200 .297 .323 .620 7   - 0.5 0.5 .000 .025 .025 0.22 1939 13 Al Brancato
       
1940 9 8 Al Rubeling R   PHI 8 R 27   98 96 184 20 13 .933   1940 9 8 Al Rubeling 341 83 15 5 4 44 34 44 53 0 5 4 5 6 .243 .330 .352 .682 41   4.0 2.4 6.4 .041 .024 .065 4.79 1940 9 8 Al Rubeling
1940 10 Joe Gantenbein   PHI 8 L 24   45 31 75 8 11 .930   1940 10 Joe Gantenbein 161 38 5 2 3 17 19 9 17 1 1 1 0 2 .236 .281 .348 .629 16   1.1 0.8 1.9 .024 .018 .042 1.14 1940 10 Joe Gantenbein
1940 12 Al Brancato R   PHI 8 R 21 SS   25 24 51 6 4 .926   1940 12 Al Brancato 71 14 3 0 0 10 5 7 9 0 0 1 0 2 .197 .269 .239 .508 4   - 0.4 0.4 .000 .016 .016 0.15 1940 12 Al Brancato
       
1941 10 8 Pete Suder R   PHI 8 R 25   136 175 271 20 25 .957   1941 10 8 Pete Suder 520 127 20 9 4 44 51 19 46 0 8 1 3 23 .244 .271 .340 .611 40   0.1 4.4 4.5 .001 .032 .033 2.40 1941 10 8 Pete Suder
       
1942 4 4 Buddy Blair R   PHI 8 L 31   126 143 234 28 21 .931   1942 4 4 Buddy Blair 484 135 26 8 5 48 66 30 30 3 6 1 6 14 .279 .325 .397 .722 61   10.9 4.2 15.1 .087 .033 .120 14.75 1942 4 4 Buddy Blair
1942 15 Pete Suder   PHI 8 R 26 2B,SS   34 38 56 4 8 .959   1942 15 Pete Suder 121 31 5 1 1 12 14 6 10 0 3 1 1 5 .256 .291 .339 .630 11   1.0 0.7 1.7 .029 .021 .050 1.08 1942 15 Pete Suder
       
1943 10 8 Eddie Mayo   PHI 8 L 33   123 176 223 10 18 .976   1943 10 8 Eddie Mayo 471 103 10 1 0 49 28 34 32 5 23 2 0 7 .219 .278 .244 .522 36   2.0 4.3 6.3 .016 .035 .051 4.16 1943 10 8 Eddie Mayo
1943 16 Pete Suder   PHI 8 R 27 2B   32 33 46 2 8 .975   1943 16 Pete Suder 115 25 3 1 1 7 10 3 10 0 2 0 0 3 .217 .237 .287 .524 8   0.1 0.7 0.8 .003 .022 .025 0.37 1943 16 Pete Suder
       
1944 8 8 George Kell Vet 22 R   PHI T5 R 21   139 167 289 20 25 .958   1944 8 8 George Kell 514 138 15 3 0 51 44 22 23 1 19 5 2 28 .268 .300 .309 .609 39   1.9 5.9 7.8 .014 .042 .056 5.19 1944 8 8 George Kell
       
1945 4 4 George Kell Vet   PHI 8 R 22   147 186 345 20 32 .964   1945 4 4 George Kell 567 154 30 3 4 50 56 27 15 1 7 2 0 13 .272 .306 .356 .662 58   7.8 7.2 15.0 .053 .049 .102 14.08 1945 4 4 George Kell
       
1946 7 4 Hank Majeski   PHI 8 R 29   72 78 159 8 22 .967   1946 7 4 Hank Majeski 264 66 14 3 1 25 25 26 13 1 2 3 2 7 .250 .320 .337 .657 27   2.6 2.8 5.4 .036 .039 .075 4.63 1946 7 4 Hank Majeski
1946 17 Pete Suder   PHI 8 R 30 SS   33 34 57 3 9 .968   1946 17 Pete Suder 128 36 6 1 1 11 14 5 10 0 3 0 0 4 .281 .308 .367 .675 12   1.2 0.6 1.8 .036 .018 .055 1.34 1946 17 Pete Suder
1946 1 George Kell Vet T16   PHI 8 R 23   26 36 57 2 5 .979   1946 1 George Kell 87 26 6 1 0 3 11 10 6 1 2 0 0 1 .299 .378 .391 .769 13   2.6 1.0 3.6 .100 .038 .138 4.23 1946 1 George Kell
       
1947 2 2 Hank Majeski   PHI 5 R 30   134 160 263 5 28 .988   1947 2 2 Hank Majeski 462 129 25 5 8 52 69 51 30 5 8 1 0 17 .279 .357 .407 .764 67   12.1 5.5 17.6 .090 .041 .131 18.42 1947 2 2 Hank Majeski
       
1948 2 2 Hank Majeski T11   PHI 4 R 31   142 163 268 11 19 .975   1948 2 2 Hank Majeski 559 173 39 4 11 83 114 45 41 6 2 2 1 18 .309 .367 .453 .820 95   17.9 5.2 23.1 .126 .037 .163 25.62 1948 2 2 Hank Majeski
       
1949 5 5 Hank Majeski   PHI 5 R 32   113 117 219 15 37 .957   1949 5 5 Hank Majeski 448 124 26 5 9 62 67 29 23 4 6 0 1 18 .277 .326 .417 .743 59   8.6 4.0 12.6 .076 .035 .112 11.79 1949 5 5 Hank Majeski
1949 11 Pete Suder   PHI 5 R 33 2B   36 37 70 5 9 .955   1949 11 Pete Suder 126 34 7 2 3 12 21 7 10 1 2 0 0 6 .270 .313 .429 .742 15   1.9 1.2 3.1 .053 .033 .086 2.55 1949 11 Pete Suder
       
1950 6 6 Bob Dillinger   PHI 8 R 31 NL-3B   84 92 173 12 18 .957   1950 6 6 Bob Dillinger 356 110 21 9 3 55 41 31 20 1 1 5 3 11 .309 .366 .444 .810 53   6.6 1.7 8.3 .079 .020 .099 7.06 1950 6 6 Bob Dillinger
1950 11 Kermit Wahl   PHI 8 R 27   61 70 141 12 11 .946   1950 11 Kermit Wahl 211 54 9 2 2 20 20 23 23 1 5 1 1 7 .256 .332 .346 .678 23   1.7 1.2 2.9 .028 .020 .048 1.72 1950 11 Kermit Wahl
       
1951 8 6 Hank Majeski   PHI 6 R 34   88 82 217 8 17 .974   1951 8 6 Hank Majeski 323 92 19 4 5 41 42 35 24 2 4 1 2 9 .285 .358 .415 .773 47   6.5 2.9 9.4 .074 .033 .107 8.23 1951 8 6 Hank Majeski
1951 10 Billy Hitchcock   PHI 6 R 34 2B   45 45 99 11 14 .929   1951 10 Billy Hitchcock 145 44 7 3 1 18 23 14 15 1 3 1 0 1 .303 .369 .414 .783 23   3.7 1.0 4.7 .082 .022 .104 4.08 1951 10 Billy Hitchcock
       
1952 7 7 Billy Hitchcock   PHI 4 R 35   104 105 222 20 26 .942   1952 7 7 Billy Hitchcock 362 89 7 4 1 40 50 35 40 4 9 1 1 7 .246 .319 .296 .615 36   3.8 2.6 6.4 .037 .025 .062 4.49 1952 7 7 Billy Hitchcock
1952 8 Hank Majeski   PHI 4 R 35   34 33 87 3 9 .966   1952 8 Hank Majeski 117 30 2 2 2 14 20 19 10 1 2 0 1 7 .256 .365 .359 .724 15   2.4 1.1 3.5 .071 .032 .103 3.17 1952 8 Hank Majeski
       
Pos St All- Other 3rd Base Fielding Statistics Pos St Batting Statistics as Third Baseman Win Shares Pos St
Year Rank Rank Name HOF MVP Star Rookie GG SS Team Stdg Bats Age Pos Games PO Assts Err DP F Pct. Year Rank Rank Name At Bats Hits 2B 3B HR Runs RBI BB IBB SO HP SH SF SB CS GDP BA OBA SA OPS RC B WS F WS T WS BWS/G FWS/G TWS/G Adj WSQ Year Rank Rank Name
1953 11 7 Loren Babe R   PHI 7 L 25   93 114 192 16 24 .950   1953 11 7 Loren Babe 339 76 16 2 0 34 20 35 20 2 3 0 1 9 .224 .301 .283 .584 28   1.3 2.8 4.1 .014 .030 .044 2.06 1953 11 7 Loren Babe
1953 10 Pete Suder   PHI 7 R 37 2B   72 89 174 7 19 .974   1953 10 Pete Suder 279 80 7 2 2 27 22 10 22 0 2 2 2 6 .287 .311 .348 .659 28   2.5 1.9 4.4 .035 .026 .061 2.72 1953 10 Pete Suder
       
1954 3 3 Jim Finigan T12 a R-2   PHI 8 R 25   136 151 305 25 34 .948   1954 3 3 Jim Finigan 486 147 25 6 7 57 51 64 2 66 0 6 3 2 8 17 .302 .382 .422 .804 74   16.3 4.3 20.6 .120 .032 .151 21.44 1954 3 3 Jim Finigan
1954 16 Pete Suder   PHI 8 R 38 2B   20 26 59 2 2 .977   1954 16 Pete Suder 72 14 4 0 0 3 6 2 1 6 0 1 0 0 0 2 .194 .216 .250 .466 4   - 0.4 0.4 .000 .020 .020 0.15 1954 16 Pete Suder
       
1955 5 4 Hector Lopez R   KC 6 R 25 2B   93 104 233 23 26 .936   1955 5 4 Hector Lopez 352 109 12 2 15 40 63 21 1 46 3 1 4 1 4 8 .310 .350 .483 .833 57   10.2 2.5 12.7 .110 .027 .137 13.21 1955 5 4 Hector Lopez
1955 9 Jim Finigan A   KC 6 R 26 2B   59 55 135 8 13 .960   1955 9 Jim Finigan 219 62 15 3 7 34 32 25 3 16 1 3 1 0 2 8 .283 .358 .475 .833 35   5.4 1.2 6.6 .092 .020 .112 6.22 1955 9 Jim Finigan
       
1956 6 5 Hector Lopez   KC 8 R 26 CF   121 152 254 26 23 .940   1956 6 5 Hector Lopez 453 124 23 2 11 70 43 47 2 56 2 7 2 3 5 12 .274 .343 .406 .749 62   8.1 2.6 10.7 .067 .021 .088 9.44 1956 6 5 Hector Lopez
1956 14 Jim Finigan   KC 8 R 27 2B   32 29 70 9 7 .917   1956 14 Jim Finigan 101 26 3 1 1 13 10 14 1 14 0 2 1 2 0 1 .257 .345 .337 .682 13   0.4 0.6 1.0 .013 .019 .031 0.53 1956 14 Jim Finigan
       
1957 3 3 Hector Lopez   KC 7 R 27   111 117 227 23 20 .937   1957 3 3 Hector Lopez 363 105 18 4 11 49 32 35 4 59 0 4 5 1 5 6 .289 .347 .452 .799 56   10.0 2.7 12.7 .090 .024 .114 13.46 1957 3 3 Hector Lopez
1957 13 Lou Skizas   KC 7 R 25 RF   32 29 57 5 3 .945   1957 13 Lou Skizas 96 26 2 0 6 11 12 10 0 1 0 0 1 3 0 3 .271 .336 .479 .815 16   2.3 0.7 3.0 .072 .022 .094 2.87 1957 13 Lou Skizas
1957 20 Billy Martin   KC 7 R 29 2B   20 29 24 2 4 .964   1957 20 Billy Martin 66 15 2 0 2 9 8 5 0 4 0 1 4 5 1 8 .227 .267 .348 .615 6   0.7 0.4 1.1 .035 .020 .055 0.81 1957 20 Billy Martin
       
1958 9 6 Hector Lopez   KC 7 R 28 2B   55 56 95 7 8 .956   1958 9 6 Hector Lopez 210 53 9 0 3 32 21 19 0 20 0 2 4 0 0 6 .252 .309 .338 .647 22   3.5 1.4 4.9 .064 .025 .089 4.60 1958 9 6 Hector Lopez
1958 7 Hal Smith   KC 7 R 27 C   43 44 87 7 9 .949   1958 7 Hal Smith 153 43 10 1 1 22 22 15 1 24 2 1 4 0 0 2 .281 .345 .379 .724 21   3.7 1.2 4.9 .086 .028 .114 5.20 1958 7 Hal Smith
1958 6 Preston Ward   KC 7 L 30 1B   34 23 53 8 4 .905   1958 6 Preston Ward 129 30 7 0 2 12 11 13 2 19 0 3 1 0 1 2 .233 .301 .333 .634 16   3.1 0.6 3.7 .091 .018 .109 3.83 1958 6 Preston Ward
1958 16 Chico Carrasquel   KC 7 R 32 SS   32 29 52 2 10 .976   1958 16 Chico Carrasquel 92 23 4 1 1 12 10 11 0 7 0 1 0 0 0 1 .250 .330 .348 .678 10   1.3 0.6 1.9 .041 .019 .059 1.46 1958 16 Chico Carrasquel
       
1959 5 5 Dick Williams Other   KC 7 R 30 1B   80 83 164 11 10 .957   1959 5 5 Dick Williams 296 88 24 0 14 55 53 20 0 30 4 8 4 3 1 8 .297 .346 .520 .866 52   8.0 1.5 9.5 .100 .019 .119 9.30 1959 5 5 Dick Williams
1959 8 Hal Smith   KC 7 R 28 C   77 85 119 10 10 .953   1959 8 Hal Smith 206 56 9 0 4 29 19 28 0 31 3 2 1 0 3 4 .272 .366 .374 .740 29   5.0 1.3 6.3 .065 .017 .082 5.11 1959 8 Hal Smith
       
1960 11 7 Andy Carey   KC 8 R 28   91 95 179 7 26 .975   1960 11 7 Andy Carey 330 79 13 4 12 30 50 25 0 46 1 3 3 0 0 15 .239 .292 .412 .704 36   3.7 3.2 6.9 .041 .035 .076 5.76 1960 11 7 Andy Carey
1960 8 Dick Williams Other   KC 8 R 31 1B,LF   57 62 111 9 13 .951   1960 8 Dick Williams 204 59 15 0 5 28 31 22 2 23 1 1 3 0 0 10 .289 .357 .436 .793 30   5.0 2.1 7.1 .088 .037 .125 7.60 1960 8 Dick Williams
       
1961 9 8 Wayne Causey   KC T9 L 24   88 102 193 14 20 .955   1961 9 8 Wayne Causey 265 71 12 1 6 28 41 32 0 27 0 7 4 0 0 5 .268 .342 .389 .731 37   5.6 2.5 8.1 .064 .028 .092 7.86 1961 9 8 Wayne Causey
1961 10 Andy Carey   KC T9 R 29   39 32 70 6 12 .944   1961 10 Andy Carey 123 30 6 2 3 21 11 15 0 23 2 2 0 0 0 3 .244 .336 .398 .734 17   2.5 0.9 3.4 .064 .023 .087 3.19 1961 10 Andy Carey
1961 18 Reno Bertoia   KC T9 R 26   29 27 70 6 6 .942   1961 18 Reno Bertoia 100 22 1 0 0 10 10 7 0 15 0 4 3 0 0 6 .220 .264 .230 .494 7   0.3 0.8 1.1 .010 .028 .038 0.66 1961 18 Reno Bertoia
       
1962 3 3 Ed Charles R   KC 9 R 29   140 145 285 16 27 .964   1962 3 3 Ed Charles 527 154 24 7 17 81 74 53 0 67 4 9 2 20 5 12 .292 .360 .461 .821 88   15.0 5.8 20.8 .107 .041 .149 23.46 1962 3 3 Ed Charles
1962 15 Wayne Causey   KC 9 L 25 SS   26 22 48 1 3 .986   1962 15 Wayne Causey 74 16 2 1 2 10 10 11 2 11 2 0 2 2 0 2 .216 .326 .351 .677 9   1.1 0.5 1.6 .042 .019 .062 1.15 1962 15 Wayne Causey
       
1963 6 6 Ed Charles   KC 8 R 30   158 153 310 25 19 .949   1963 6 6 Ed Charles 603 161 28 2 15 82 79 58 7 79 5 5 8 15 8 21 .267 .332 .395 .727 77   11.3 4.9 16.2 .072 .031 .103 15.08 1963 6 6 Ed Charles
       
1964 7 7 Ed Charles   KC 10 R 31   147 138 259 19 25 .954   1964 7 7 Ed Charles 553 134 25 2 16 69 63 63 2 91 4 5 4 12 7 20 .242 .322 .382 .704 63   7.6 2.6 10.2 .052 .018 .069 7.72 1964 7 7 Ed Charles
       
1965 6 6 Ed Charles   KC 10 R 32   128 150 251 12 28 .971   1965 6 6 Ed Charles 474 128 19 7 8 56 55 44 0 70 4 2 4 13 4 10 .270 .335 .390 .725 61   12.2 3.4 15.6 .095 .027 .122 15.77 1965 6 6 Ed Charles
1965 12 Wayne Causey   KC 10 L 28 2B,SS   35 35 62 6 5 .942   1965 12 Wayne Causey 131 39 4 2 1 11 14 11 0 4 1 2 0 0 2 1 .298 .357 .382 .739 18   3.4 0.7 4.1 .097 .020 .117 4.06 1965 12 Wayne Causey
       
1966 4 4 Ed Charles   KC 7 R 33   104 85 201 11 21 .963   1966 4 4 Ed Charles 368 104 18 7 9 48 36 30 2 50 0 4 1 11 4 8 .283 .336 .443 .779 54   13.3 3.3 16.6 .128 .032 .160 18.49 1966 4 4 Ed Charles
1966 12 Danny Cater   KC 7 R 26 1B,LF   42 46 67 5 6 .958   1966 12 Danny Cater 147 37 7 1 2 19 19 11 1 17 1 1 1 0 2 5 .252 .306 .354 .660 15   3.4 1.2 4.6 .081 .029 .110 4.24 1966 12 Danny Cater
       
Pos St All- Other 3rd Base Fielding Statistics Pos St Batting Statistics as Third Baseman Win Shares Pos St
Year Rank Rank Name HOF MVP Star Rookie GG SS Team Stdg Bats Age Pos Games PO Assts Err DP F Pct. Year Rank Rank Name At Bats Hits 2B 3B HR Runs RBI BB IBB SO HP SH SF SB CS GDP BA OBA SA OPS RC B WS F WS T WS BWS/G FWS/G TWS/G Adj WSQ Year Rank Rank Name
1967 21 10 Dick Green   KC 10 R 26 2B   59 54 86 8 5 .946   1967 21 10 Dick Green 161 28 5 1 3 12 19 12 0 26 0 4 1 0 2 3 .174 .230 .273 .503 10   0.7 1.4 2.1 .012 .024 .036 1.25 1967 21 10 Dick Green
1967 12 Danny Cater   KC 10 R 27 1B,LF   56 43 77 11 3 .916   1967 12 Danny Cater 196 43 7 2 2 18 18 11 3 22 2 1 1 2 2 5 .219 .267 .306 .573 15   2.5 1.3 3.8 .045 .023 .068 3.12 1967 12 Danny Cater
1967 19 Sal Bando R   KC 10 R 23   44 43 96 6 7 .959   1967 19 Sal Bando 126 24 2 2 0 10 6 15 0 24 3 3 0 1 0 0 .190 .292 .238 .530 11   1.3 1.2 2.5 .030 .027 .057 1.87 1967 19 Sal Bando
       
1968 3 3 Sal Bando   OAK 6 R 24   162 188 272 17 27 .964   1968 3 3 Sal Bando 604 152 25 5 9 67 67 51 6 77 7 6 5 13 4 12 .252 .315 .354 .669 68   15.5 5.0 20.5 .096 .031 .127 21.80 1968 3 3 Sal Bando
       
1969 1 1 Sal Bando 16 A   OAK 2W R 25   162 178 321 24 36 .954   1969 1 1 Sal Bando 609 171 25 3 31 106 113 111 5 82 11 2 1 1 4 12 .281 .400 .484 .884 123   31.5 4.2 35.7 .194 .026 .220 46.65 1969 1 1 Sal Bando
       
1970 3 3 Sal Bando T27   OAK 2W R 26   152 158 258 20 22 .954   1970 3 3 Sal Bando 501 132 20 2 20 93 75 117 5 88 6 7 3 6 10 12 .263 .407 .431 .838 91   20.2 3.8 24.0 .133 .025 .158 26.13 1970 3 3 Sal Bando
       
1971 1 1 Sal Bando 2   OAK 1W R 27   153 141 267 12 22 .971   1971 1 1 Sal Bando 538 146 23 1 24 75 94 86 11 55 8 6 5 3 7 14 .271 .377 .452 .829 93   24.1 4.7 28.8 .158 .031 .188 33.39 1971 1 1 Sal Bando
       
1972 1 1 Sal Bando T30 a   OAK 1W R 28   151 123 337 19 29 .960   1972 1 1 Sal Bando 535 126 20 3 15 65 77 75 17 55 9 6 3 3 1 13 .236 .338 .368 .706 69   16.6 5.3 21.9 .110 .035 .145 24.77 1972 1 1 Sal Bando
       
1973 1 1 Sal Bando T4 a   OAK 1W R 29   159 126 281 22 24 .949   1973 1 1 Sal Bando 582 167 31 3 28 97 95 81 5 84 4 6 5 4 2 12 .287 .375 .495 .870 111   28.2 2.2 30.4 .177 .014 .191 36.81 1973 1 1 Sal Bando
       
1974 4 4 Sal Bando 3 a-inj   OAK 1W R 30   141 113 287 23 28 .946   1974 4 4 Sal Bando 486 119 21 2 22 87 102 85 4 74 5 1 13 2 3 10 .245 .355 .432 .787 80   17.1 2.7 19.8 .121 .019 .140 21.76 1974 4 4 Sal Bando
       
1975 3 3 Sal Bando   OAK 1W R 31   160 122 314 15 36 .967   1975 3 3 Sal Bando 561 129 24 1 15 64 78 87 2 80 5 2 2 7 1 10 .230 .337 .357 .694 73   13.8 4.7 18.5 .086 .029 .116 19.09 1975 3 3 Sal Bando
       
1976 3 3 Sal Bando 13   OAK 2W R 32   155 125 304 17 26 .962   1976 3 3 Sal Bando 543 131 18 2 27 78 83 75 1 73 4 7 3 19 6 7 .241 .336 .431 .767 84   18.1 4.8 22.9 .117 .031 .148 25.21 1976 3 3 Sal Bando
1976 22 Ken McMullen   OAK 2W R 34 1B,DH   35 10 30 2 1 .952   1976 22 Ken McMullen 35 7 1 0 0 2 2 6 2 3 1 0 0 1 0 1 .200 .333 .229 .562 3   0.5 0.6 1.1 .014 .017 .031 0.56 1976 22 Ken McMullen
       
1977 6 6 Wayne Gross a R   OAK 7W L 25   145 126 242 27 26 .932   1977 6 6 Wayne Gross 485 113 21 1 22 67 63 85 6 84 4 3 3 5 4 7 .233 .350 .416 .766 76   14.1 1.3 15.4 .097 .009 .106 14.11 1977 6 6 Wayne Gross
       
1978 17 14 Wayne Gross   OAK 6W L 26   106 72 150 20 22 .917   1978 17 14 Wayne Gross 259 53 9 1 6 19 18 36 2 56 5 4 1 0 2 3 .205 .312 .317 .629 28   3.8 2.0 5.8 .036 .019 .055 3.90 1978 17 14 Wayne Gross
1978 16 Taylor Duncan R   OAK 6W R 25   84 63 119 9 4 .953   1978 16 Taylor Duncan 265 71 14 2 2 27 33 18 0 25 0 7 3 1 2 5 .268 .311 .358 .669 29   3.7 1.7 5.4 .044 .020 .064 3.93 1978 16 Taylor Duncan
       
1979 7 7 Wayne Gross   OAK 7W L 27   120 120 211 20 19 .943   1979 7 7 Wayne Gross 386 90 18 1 13 49 43 65 8 52 1 3 2 4 3 7 .233 .344 .386 .730 54   9.8 2.5 12.3 .082 .021 .103 12.05 1979 7 7 Wayne Gross
       
1980 4 4 Wayne Gross OAK 2W L 28   99 69 130 11 13 .948   1980 4 4 Wayne Gross 328 93 19 1 13 45 52 40 9 34 1 2 6 4 3 2 .284 .357 .466 .823 57   11.9 2.4 14.3 .120 .024 .144 15.04 1980 4 4 Wayne Gross
1980 15 Mickey Klutts R OAK 2W R 25   62 46 80 7 3 .947   1980 15 Mickey Klutts 154 42 11 0 3 16 16 13 1 32 0 1 1 1 4 4 .273 .327 .403 .730 19   2.6 1.4 4.0 .042 .023 .065 2.81 1980 15 Mickey Klutts
1980 25 Dave McKay OAK 2W B 30 2B   54 39 66 4 5 .963   1980 25 Dave McKay 104 24 7 0 0 10 9 6 0 23 1 3 0 1 1 0 .231 .279 .298 .577 9   0.7 1.1 1.8 .013 .020 .033 0.91 1980 25 Dave McKay
     
1981 8 8 Wayne Gross OAK 1W L 29   73 65 127 11 7 .946   1981 8 8 Wayne Gross 234 49 7 1 9 30 30 31 0 26 2 4 4 2 1 6 .209 .303 .363 .666 27   4.8 2.4 7.2 .066 .033 .099 6.44 1981 8 8 Wayne Gross
1981 17 Dave McKay OAK 1W B 31 2B   43 29 59 7 3 .926   1981 17 Dave McKay 104 23 6 0 1 10 11 7 0 23 1 1 2 3 0 1 .221 .272 .308 .580 10   2.0 1.0 3.0 .047 .023 .070 2.26 1981 17 Dave McKay
     
1982 7 7 Wayne Gross OAK 5W L 30   108 113 182 9 25 .970   1982 7 7 Wayne Gross 331 79 12 0 8 37 34 41 0 42 1 5 2 3 1 4 .239 .323 .347 .670 40   7.7 2.8 10.5 .071 .026 .097 8.98 1982 7 7 Wayne Gross
1982 28 Mickey Klutts OAK 5W R 27   49 41 82 7 6 .946   1982 28 Mickey Klutts 148 26 7 0 0 9 13 9 0 15 0 3 1 0 0 4 .176 .222 .223 .445 6   - 1.2 1.2 .000 .024 .024 0.52 1982 28 Mickey Klutts
     
1983 9 9 Carney Lansford OAK 4W R 26   78 60 163 10 19 .957   1983 9 9 Carney Lansford 295 90 15 2 10 42 45 22 4 32 3 0 4 3 7 7 .305 .355 .471 .826 46   9.9 1.9 11.8 .127 .024 .151 12.88 1983 9 9 Carney Lansford
1983 12 Wayne Gross OAK 4W L 31 1B   67 47 92 7 10 .952   1983 12 Wayne Gross 163 47 11 0 8 22 26 22 2 24 2 3 1 1 4 2 .288 .378 .503 .881 31   5.1 1.2 6.3 .076 .018 .094 5.42 1983 12 Wayne Gross
1983 20 Bill Almon OAK 4W R 30 1B,SS   40 34 58 9 5 .911   1983 20 Bill Almon 129 31 10 0 0 7 14 8 1 24 0 2 2 5 2 1 .240 .281 .318 .599 12   1.8 0.7 2.5 .045 .018 .063 1.76 1983 20 Bill Almon
     
1984 3 3 Carney Lansford OAK 4W R 27   151 137 268 18 27 .957   1984 3 3 Carney Lansford 597 179 31 5 14 70 74 40 6 62 3 2 9 9 3 12 .300 .342 .439 .781 89   20.3 4.4 24.7 .134 .029 .164 29.84 1984 3 3 Carney Lansford
     
Pos St All- Other 3rd Base Fielding Statistics Pos St Batting Statistics as Third Baseman Win Shares Pos St
Year Rank Rank Name HOF MVP Star Rookie GG SS Team Stdg Bats Age Pos Games PO Assts Err DP F Pct. Year Rank Rank Name At Bats Hits 2B 3B HR Runs RBI BB IBB SO HP SH SF SB CS GDP BA OBA SA OPS RC B WS F WS T WS BWS/G FWS/G TWS/G Adj WSQ Year Rank Rank Name
1985 8 8 Carney Lansford OAK T4W R 28   97 85 119 5 11 .976   1985 8 8 Carney Lansford 400 111 18 2 13 51 46 18 1 27 4 4 5 2 3 6 .278 .311 .430 .741 53   9.8 1.6 11.4 .101 .016 .118 11.06 1985 8 8 Carney Lansford
1985 16 Tony Phillips OAK T4W B 26 2B   31 36 60 2 6 .980   1985 16 Tony Phillips 110 33 10 1 4 16 14 8 0 22 0 3 1 1 2 1 .300 .345 .518 .863 19   4.0 0.6 4.6 .129 .019 .148 5.01 1985 16 Tony Phillips
1985 29 Steve Kiefer R OAK T4W R 24   34 15 37 7 5 .881   1985 29 Steve Kiefer 64 12 1 1 0 5 7 1 0 17 0 2 2 0 0 1 .188 .194 .234 .428 3   - 0.3 0.3 .000 .009 .009 0.08 1985 29 Steve Kiefer
     
1986 10 10 Carney Lansford OAK T3W R 29 1B   100 67 147 4 13 .982   1986 10 10 Carney Lansford 371 105 11 1 14 55 55 25 1 32 4 0 3 11 3 10 .283 .333 .431 .764 52   9.8 2.2 12.0 .098 .022 .120 11.66 1986 10 10 Carney Lansford
1986 21 Donnie Hill OAK T3W B 25 2B   33 12 63 5 4 .938   1986 21 Donnie Hill 107 29 5 1 0 7 6 4 0 9 0 1 0 2 1 4 .271 .297 .336 .633 10   1.6 0.7 2.3 .048 .021 .070 1.71 1986 21 Donnie Hill
1986 14 Tony Phillips OAK T3W B 27 2B   30 20 33 2 3 .964   1986 14 Tony Phillips 101 31 1 3 0 25 11 13 0 15 3 3 0 6 0 2 .307 .402 .376 .778 18   3.5 0.9 4.4 .117 .030 .147 4.73 1986 14 Tony Phillips
     
1987 3 3 Carney Lansford OAK 3W R 30   142 98 249 7 15 .980   1987 3 3 Carney Lansford 510 140 26 4 18 84 73 58 10 42 9 3 3 25 6 7 .275 .357 .447 .804 86   16.6 4.4 21.0 .117 .031 .148 23.48 1987 3 3 Carney Lansford
1987 28 Mike Gallego R OAK 3W R 26 2B   24 5 24 0 1 1.000   1987 28 Mike Gallego 22 7 0 0 1 3 3 3 0 2 0 1 0 0 1 1 .318 .400 .455 .855 3   0.3 0.5 0.8 .013 .021 .033 0.42 1987 28 Mike Gallego
     
1988 6 6 Carney Lansford a OAK 1W R 31   143 113 220 7 16 .979   1988 6 6 Carney Lansford 545 151 19 2 6 79 53 35 4 34 7 5 3 28 8 17 .277 .327 .352 .679 62   12.0 3.7 15.7 .084 .026 .110 14.84 1988 6 6 Carney Lansford
1988 21 Tony Phillips OAK 1W B 29 2B,LF   32 15 27 4 3 .913   1988 21 Tony Phillips 60 10 1 2 1 10 6 10 0 14 1 0 0 0 1 3 .167 .296 .300 .596 5   0.6 0.5 1.1 .019 .016 .034 0.58 1988 21 Tony Phillips
     
1989 4 4 Carney Lansford 17 OAK 1W R 32   136 104 183 13 11 .957   1989 4 4 Carney Lansford 498 167 25 1 2 72 47 43 2 24 8 1 4 31 15 19 .335 .394 .402 .796 77   17.1 2.2 19.3 .126 .016 .142 21.05 1989 4 4 Carney Lansford
1989 15 Tony Phillips OAK 1W B 30 2B   49 19 44 7 3 .900   1989 15 Tony Phillips 114 27 6 0 0 14 11 10 1 12 1 1 1 1 3 5 .237 .302 .289 .591 9   1.4 1.7 3.1 .029 .035 .063 2.26 1989 15 Tony Phillips
     
1990 9 9 Carney Lansford OAK 1W R 33   126 100 194 9 22 .970   1990 9 9 Carney Lansford 478 124 14 1 3 56 47 41 4 43 6 2 3 13 11 10 .259 .324 .312 .636 48   7.2 4.1 11.3 .057 .033 .090 10.24 1990 9 9 Carney Lansford
1990 32 Lance Blankenship R OAK 1W R 26 2B   28 17 37 3 2 .947   1990 32 Lance Blankenship 59 15 3 0 0 9 4 8 0 8 0 2 0 0 0 0 .254 .343 .305 .648 7   - 0.6 0.6 .000 .021 .021 0.27 1990 32 Lance Blankenship
1990 27 Mike Gallego OAK 1W R 29 2B,SS   27 10 35 6 4 .882   1990 27 Mike Gallego 56 13 4 1 0 2 6 5 0 7 0 1 0 0 0 1 .232 .295 .339 .634 6   - 0.9 0.9 .000 .033 .033 0.50 1990 27 Mike Gallego
     
1991 16 13 Ernest Riles OAK 4W L 30 SS   69 54 101 10 14 .939   1991 16 13 Ernest Riles 198 48 7 2 4 24 25 22 3 27 1 2 2 2 2 4 .242 .318 .359 .677 23   3.5 1.4 4.9 .051 .020 .071 4.04 1991 16 13 Ernest Riles
1991 24 Brook Jacoby OAK 4W R 31 1B   52 38 72 2 9 .982   1991 24 Brook Jacoby 177 38 11 0 0 14 17 10 1 20 0 0 4 2 0 6 .215 .251 .277 .528 13   0.8 1.0 1.8 .015 .019 .035 1.04 1991 24 Brook Jacoby
1991 25 Vance Law OAK 4W R 34   67 36 62 5 7 .951   1991 25 Vance Law 122 24 6 1 0 10 8 16 0 26 0 4 0 0 0 4 .197 .290 .262 .552 10   1.4 0.9 2.3 .021 .013 .034 1.32 1991 25 Vance Law
     
1992 8 8 Carney Lansford OAK 1W R 35   119 86 162 9 10 .965   1992 8 8 Carney Lansford 437 116 25 1 6 59 69 38 0 33 5 6 8 6 2 14 .265 .326 .368 .694 53   10.2 2.4 12.6 .086 .020 .106 12.27 1992 8 8 Carney Lansford
1992 11 Jerry Browne OAK 1W B 26 CF   58 40 70 4 8 .965   1992 11 Jerry Browne 149 47 9 2 1 15 21 15 0 19 1 10 3 2 1 4 .315 .375 .423 .798 24   5.3 1.1 6.4 .091 .019 .110 6.36 1992 11 Jerry Browne
     
1993 18 13 Craig Paquette R OAK 7W R 24   104 81 165 13 17 .950   1993 18 13 Craig Paquette 389 85 19 4 12 35 46 14 2 108 0 1 1 4 2 7 .219 .245 .380 .625 34   2.8 2.1 4.9 .027 .020 .047 3.30 1993 18 13 Craig Paquette
1993 T11 Kevin Seitzer OAK 7W R 31 1B   46 31 66 7 6 .933   1993 T11 Kevin Seitzer 158 39 5 2 3 17 16 18 1 19 0 2 0 2 5 2 .247 .324 .361 .685 19   2.7 0.9 3.6 .059 .020 .078 3.09 1993 T11 Kevin Seitzer
     
1994 12 12 Scott Brosius OAK 2W R 27   93 70 157 13 18 .946   1994 12 12 Scott Brosius 315 74 13 1 14 28 48 24 0 55 2 3 5 1 5 5 .235 .289 .416 .705 37   4.1 2.0 6.1 .044 .022 .066 4.67 1994 12 12 Scott Brosius
     
1995 21 13 Craig Paquette OAK 4W R 26   75 38 78 8 11 .935   1995 21 13 Craig Paquette 218 48 10 1 9 29 34 5 0 63 1 3 4 3 2 5 .220 .237 .399 .636 19   2.0 0.7 2.7 .027 .009 .036 1.50 1995 21 13 Craig Paquette
1995 14 Scott Brosius OAK 4W R 28 CF,RF   60 27 96 11 8 .918   1995 14 Scott Brosius 173 46 8 2 4 29 17 26 0 27 2 2 1 2 1 1 .266 .366 .405 .771 28   4.5 0.6 5.1 .075 .010 .085 4.34 1995 14 Scott Brosius
1995 18 Jason Giambi R OAK 4W L 24 1B   30 27 45 3 4 .960   1995 18 Jason Giambi 94 25 3 0 3 17 15 16 0 10 1 1 0 1 1 4 .266 .378 .394 .772 14   2.2 0.5 2.7 .073 .017 .090 2.36 1995 18 Jason Giambi
     
1996 2 2 Scott Brosius OAK 3W R 29   109 83 232 10 25 .969   1996 2 2 Scott Brosius 401 122 24 0 22 70 68 56 4 79 7 1 4 6 1 10 .304 .395 .529 .924 86   14.7 3.9 18.6 .135 .036 .171 22.63 1996 2 2 Scott Brosius
1996 13 Jason Giambi OAK 3W L 25 1B,LF   39 31 79 8 10 .932   1996 13 Jason Giambi 153 45 9 0 6 27 17 12 1 20 1 1 0 0 0 1 .294 .349 .471 .820 26   3.7 1.1 4.8 .095 .028 .123 4.96 1996 13 Jason Giambi
     
1997 18 12 Scott Brosius OAK 4W R 30 SS   107 92 206 7 23 .977   1997 18 12 Scott Brosius 354 74 17 1 7 48 30 27 1 75 3 4 3 7 2 5 .209 .269 .322 .591 24   - 3.0 3.0 .000 .028 .028 1.57 1997 18 12 Scott Brosius
1997 16 Mark Bellhorn R OAK 4W B 22   40 31 66 5 8 .951   1997 16 Mark Bellhorn 147 29 7 0 4 19 13 21 0 45 0 1 0 4 1 0 .197 .298 .327 .625 16   1.7 1.3 3.0 .043 .033 .075 2.57 1997 16 Mark Bellhorn
1997 15 Dave Magadan OAK 4W L 34 1B,DH   49 25 54 5 7 .940   1997 15 Dave Magadan 88 29 3 0 3 11 7 18 0 13 1 3 0 0 0 2 .330 .449 .466 .915 20   3.4 0.9 4.3 .069 .018 .088 3.99 1997 15 Dave Magadan
     
Pos St All- Other 3rd Base Fielding Statistics Pos St Batting Statistics as Third Baseman Win Shares Pos St
Year Rank Rank Name HOF MVP Star Rookie GG SS Team Stdg Bats Age Pos Games PO Assts Err DP F Pct. Year Rank Rank Name At Bats Hits 2B 3B HR Runs RBI BB IBB SO HP SH SF SB CS GDP BA OBA SA OPS RC B WS F WS T WS BWS/G FWS/G TWS/G Adj WSQ Year Rank Rank Name
1998 11 9 Mike Blowers OAK 4W R 33   120 66 174 19 15 .927   1998 11 9 Mike Blowers 376 89 21 2 11 51 63 35 1 109 1 2 4 1 0 13 .237 .300 .391 .691 43   6.8 2.1 8.9 .057 .018 .074 7.55 1998 11 9 Mike Blowers
1998 15 Dave Magadan OAK 4W L 35   30 15 52 6 7 .918   1998 15 Dave Magadan 96 30 7 0 1 14 8 10 1 12 0 0 0 0 1 3 .313 .377 .417 .794 14   3.0 0.7 3.7 .100 .023 .123 4.05 1998 15 Dave Magadan
1998 16 Ed Sprague OAK 4W R 30   23 23 37 6 2 .909   1998 16 Ed Sprague 83 12 4 0 3 8 6 2 1 16 2 0 0 1 0 1 .145 .184 .301 .485 6   0.4 0.5 0.9 .017 .022 .039 0.55 1998 16 Ed Sprague
     
1999 11 11 Eric Chavez R OAK 2W L 21   105 69 155 9 13 .961   1999 11 11 Eric Chavez 341 82 18 2 13 42 44 45 4 52 0 0 0 1 1 7 .240 .329 .419 .748 48   6.8 2.0 8.8 .065 .019 .084 8.16 1999 11 11 Eric Chavez
1999 13 Olmedo Saenz R OAK 2W R 28 1B   56 27 79 7 12 .938   1999 13 Olmedo Saenz 162 47 13 0 6 25 28 15 0 29 8 0 3 1 1 2 .290 .372 .481 .853 31   4.1 0.9 5.0 .073 .016 .089 4.78 1999 13 Olmedo Saenz
1999 17 Scott Spiezio OAK 2W B 26 2B   31 16 35 4 1 .927   1999 17 Scott Spiezio 88 25 9 0 4 12 11 7 1 16 0 0 0 0 0 1 .284 .337 .523 .860 16   2.1 0.7 2.8 .068 .023 .090 2.70 1999 17 Scott Spiezio
     
2000 6 6 Eric Chavez OAK 1W L 22   146 91 256 18 17 .951   2000 6 6 Eric Chavez 490 137 22 4 26 88 85 62 8 91 1 0 5 2 2 8 .280 .358 .500 .858 88   12.8 3.2 16.0 .088 .022 .110 16.41 2000 6 6 Eric Chavez
     
2001 1 1 Eric Chavez G OAK 2W L 23   149 100 321 12 27 .972   2001 1 1 Eric Chavez 544 157 42 0 32 91 114 41 9 98 4 0 7 7 2 7 .289 .339 .542 .881 100   20.4 6.0 26.4 .137 .040 .177 33.64 2001 1 1 Eric Chavez
     
2002 1 1 Eric Chavez 14 G S OAK 1W L 24   143 120 301 17 24 .961   2002 1 1 Eric Chavez 551 152 29 3 29 79 100 60 12 113 1 0 2 8 3 7 .276 .347 .497 .844 97   19.6 4.4 24.0 .137 .031 .168 29.29 2002 1 1 Eric Chavez
     
2003 1 1 Eric Chavez 17 G OAK 1W L 25   154 125 343 14 33 .971   2003 1 1 Eric Chavez 586 165 39 5 29 94 101 62 10 89 1 0 3 8 3 14 .282 .350 .514 .864 104   17.9 6.5 24.4 .116 .042 .158 29.73 2003 1 1 Eric Chavez
     
2004 4 4 Eric Chavez T30 G OAK 2W L 26   125 113 276 13 31 .968   2004 4 4 Eric Chavez 474 130 20 0 29 87 77 94 10 99 3 0 4 6 3 21 .274 .395 .500 .895 93   14.2 4.1 18.3 .114 .033 .146 20.03 2004 4 4 Eric Chavez
2004 22 Mark McLemore OAK 2W B 39 2B   27 17 46 1 2 .984   2004 22 Mark McLemore 84 23 5 0 0 15 5 16 3 12 0 0 0 0 1 2 .274 .390 .333 .723 11   1.0 0.7 1.7 .037 .026 .063 1.22 2004 22 Mark McLemore
     
2005 2 2 Eric Chavez T21 G OAK 2W L 27   153 121 301 15 27 .966   2005 2 2 Eric Chavez 599 161 39 0 26 89 98 58 4 124 2 0 9 6 0 9 .269 .331 .464 .795 95   15.4 5.4 20.8 .101 .035 .136 22.59 2005 2 2 Eric Chavez
     
2006 6 6 Eric Chavez G OAK 1W L 28   134 105 281 5 42 .987   2006 6 6 Eric Chavez 473 116 24 2 22 74 71 83 6 95 1 0 6 3 0 19 .245 .355 .444 .799 75   10.9 6.3 17.2 .081 .047 .128 18.05 2006 6 6 Eric Chavez
2006 24 Antonio Perez OAK 1W R 26 DH   27 20 47 4 4 .944   2006 24 Antonio Perez 74 8 4 1 1 6 6 5 0 31 0 0 0 0 0 0 .108 .165 .230 .395 3   - 1.0 1.0 .000 .037 .037 0.57 2006 24 Antonio Perez
     
2007 13 12 Eric Chavez OAK 3W L 29   88 66 169 6 16 .975   2007 13 12 Eric Chavez 340 82 21 2 15 41 46 34 2 76 0 0 4 4 2 9 .241 .307 .447 .754 46   4.3 2.3 6.6 .049 .026 .075 5.10 2007 13 12 Eric Chavez
2007 14 Jack Hannahan OAK 3W L 27   41 19 78 3 10 .970   2007 14 Jack Hannahan 144 40 12 0 3 16 24 21 0 39 1 1 2 1 0 6 .278 .369 .424 .793 23   3.9 0.9 4.8 .095 .022 .117 4.64 2007 14 Jack Hannahan
2007 18 Marco Scutaro OAK 3W R 31 SS   36 23 64 9 2 .906   2007 18 Marco Scutaro 121 34 6 0 3 21 22 17 0 13 1 0 1 0 0 3 .281 .371 .405 .776 19   2.4 0.6 3.0 .067 .017 .083 2.45 2007 18 Marco Scutaro
     
2008 20 14 Jack Hannahan OAK 3W L 28   126 70 218 9 24 .970   2008 20 14 Jack Hannahan 378 83 22 0 9 45 43 54 4 115 1 2 4 2 0 4 .220 .316 .349 .665 46   2.1 3.1 5.2 .017 .025 .041 3.10 2008 20 14 Jack Hannahan
2008 32 Donnie Murphy OAK 3W R 25   24 12 27 1 7 .975   2008 32 Donnie Murphy 51 11 1 0 2 6 6 8 0 19 0 0 0 1 0 1 .216 .322 .353 .675 6   - 0.4 0.4 .000 .017 .017 0.15 2008 32 Donnie Murphy
     
2009 9 8 Adam Kennedy OAK 4W L 33 2B   82 50 156 13 8 .941   2009 9 8 Adam Kennedy 336 95 17 0 5 43 37 28 2 59 1 2 2 13 2 4 .283 .338 .378 .716 46   9.0 1.8 10.8 .110 .022 .132 11.35 2009 9 8 Adam Kennedy
2009 17 Jack Hannahan OAK 4W L 29   51 35 89 4 10 .969   2009 17 Jack Hannahan 117 22 6 2 1 11 8 13 0 36 1 1 0 0 0 2 .188 .275 .299 .574 11   0.4 1.6 2.0 .008 .031 .039 1.15 2009 17 Jack Hannahan
2009 28 Bobby Crosby OAK 4W R 29 1B   42 23 72 7 6 .931   2009 28 Bobby Crosby 106 24 4 2 3 17 15 19 0 16 0 1 2 1 0 1 .226 .339 .387 .726 16   0.5 0.8 1.3 .012 .019 .031 0.66 2009 28 Bobby Crosby
     
2010 12 10 Kevin Kouzmanoff OAK 2W R 28   142 90 278 12 29 .968   2010 12 10 Kevin Kouzmanoff 550 135 32 1 15 59 70 24 2 96 6 0 5 2 1 20 .245 .282 .389 .671 55   4.2 3.4 7.6 .030 .024 .054 5.07 2010 12 10 Kevin Kouzmanoff
Copyright 2009-11 by Andre Lower
Sources:
All-Time Major League Handbook
Win Shares Digital Update
baseball-reference.com
ESPN Baseball Encyclopedia